Time;durP1;ratioP1;P1;durP2;ratioP2;P2;SDS_P1;SDS_P2;PMS_P1;PMS_P2;Temp;Humidity;BMP_temperature;BMP_pressure;BME280_temperature;BME280_humidity;BME280_pressure;Samples;Min_cycle;Max_cycle;Signal;HPM_P1;HPM_P2
2022/07/13 00:00:56;;;;;;;2.15;0.98;;;27.90;59.40;;;;;;10940091;32;20403;-71
2022/07/13 00:06:58;;;;;;;1.95;0.90;;;27.90;59.80;;;;;;10943255;32;20023;-71
2022/07/13 00:13:00;;;;;;;2.60;0.82;;;27.80;60.00;;;;;;10938669;32;20327;-70
2022/07/13 00:19:02;;;;;;;1.62;0.80;;;27.90;59.90;;;;;;10938623;32;20023;-71
2022/07/13 00:25:04;;;;;;;3.62;0.80;;;27.90;59.70;;;;;;10941369;32;20030;-70
2022/07/13 00:31:06;;;;;;;0.47;0.43;;;27.80;59.90;;;;;;10938348;32;20050;-71
2022/07/13 00:37:08;;;;;;;0.73;0.62;;;27.80;60.00;;;;;;10926682;32;20031;-70
2022/07/13 00:43:10;;;;;;;0.85;0.68;;;27.80;60.10;;;;;;10939202;32;20054;-71
2022/07/13 00:49:13;;;;;;;1.55;0.85;;;27.80;60.10;;;;;;10940483;32;20034;-70
2022/07/13 00:55:16;;;;;;;0.95;0.82;;;27.60;60.30;;;;;;10924579;32;20383;-71
2022/07/13 01:01:19;;;;;;;0.82;0.75;;;27.50;60.30;;;;;;10924858;32;20430;-71
2022/07/13 01:07:21;;;;;;;0.75;0.57;;;27.50;60.30;;;;;;10928309;32;20054;-71
2022/07/13 01:13:23;;;;;;;1.73;0.60;;;27.50;60.30;;;;;;10943738;32;20031;-71
2022/07/13 01:19:26;;;;;;;1.87;1.15;;;27.50;60.50;;;;;;10944917;32;20418;-71
2022/07/13 01:25:29;;;;;;;1.00;0.80;;;27.50;60.40;;;;;;10949128;32;20023;-71
2022/07/13 01:31:39;;;;;;;0.40;0.37;;;27.50;60.50;;;;;;10944482;32;20058;-71
2022/07/13 01:37:43;;;;;;;0.90;0.70;;;27.50;60.40;;;;;;10948347;32;20407;-71
2022/07/13 01:43:46;;;;;;;0.85;0.70;;;27.40;60.30;;;;;;10944083;32;20041;-71
2022/07/13 01:49:49;;;;;;;2.55;0.62;;;27.30;60.40;;;;;;10947755;32;20027;-71
2022/07/13 01:55:51;;;;;;;0.88;0.77;;;27.30;60.30;;;;;;10946808;32;20097;-71
2022/07/13 02:01:54;;;;;;;0.55;0.50;;;27.30;60.10;;;;;;10933158;32;20049;-71
2022/07/13 02:07:56;;;;;;;1.20;0.90;;;27.30;60.10;;;;;;10947410;32;20030;-71
2022/07/13 02:13:59;;;;;;;1.00;0.40;;;27.10;60.30;;;;;;10943237;32;20437;-71
2022/07/13 02:20:02;;;;;;;0.50;0.50;;;26.90;60.50;;;;;;10946544;32;20441;-70
2022/07/13 02:26:04;;;;;;;1.65;0.90;;;27.00;60.40;;;;;;10942102;32;20035;-70
2022/07/13 02:32:07;;;;;;;2.92;1.12;;;26.90;60.40;;;;;;10943278;32;20018;-70
2022/07/13 02:38:09;;;;;;;1.73;0.88;;;26.90;60.30;;;;;;10945998;32;20058;-71
2022/07/13 02:44:11;;;;;;;1.90;1.05;;;27.00;60.30;;;;;;10944186;32;20383;-70
2022/07/13 02:50:15;;;;;;;1.95;1.20;;;26.90;60.30;;;;;;10943202;32;20034;-70
2022/07/13 02:56:36;;;;;;;0.88;0.68;;;26.90;60.40;;;;;;10941470;32;20058;-70
2022/07/13 03:02:39;;;;;;;3.25;1.30;;;26.90;60.40;;;;;;10943954;32;20053;-71
2022/07/13 03:08:41;;;;;;;2.05;1.27;;;26.90;60.50;;;;;;10941133;32;20116;-71
2022/07/13 03:14:44;;;;;;;1.17;0.82;;;26.90;60.40;;;;;;10941094;32;20065;-70
2022/07/13 03:20:46;;;;;;;2.58;0.75;;;26.70;60.60;;;;;;10940488;32;20030;-70
2022/07/13 03:26:48;;;;;;;1.55;0.85;;;26.60;60.80;;;;;;10940269;32;20031;-71
2022/07/13 03:32:51;;;;;;;1.00;0.80;;;26.40;61.00;;;;;;10502363;32;12234185;-71
2022/07/13 03:38:53;;;;;;;3.25;0.80;;;26.30;61.10;;;;;;10863629;32;20077;-70
2022/07/13 03:44:57;;;;;;;1.70;0.90;;;26.40;60.90;;;;;;10861443;32;20050;-70
2022/07/13 03:51:00;;;;;;;1.85;1.33;;;26.30;60.90;;;;;;10848455;32;20062;-70
2022/07/13 03:57:17;;;;;;;1.48;1.02;;;26.30;61.00;;;;;;10906526;32;20057;-70
2022/07/13 04:03:19;;;;;;;1.25;1.15;;;26.40;60.90;;;;;;10943454;32;20425;-70
2022/07/13 04:09:21;;;;;;;2.15;1.17;;;26.40;60.80;;;;;;10940261;32;20442;-70
2022/07/13 04:15:24;;;;;;;0.85;0.68;;;26.50;60.80;;;;;;10925229;32;20053;-70
2022/07/13 04:21:26;;;;;;;1.52;1.05;;;26.30;60.90;;;;;;10925317;32;20049;-70
2022/07/13 04:27:29;;;;;;;1.77;1.15;;;26.30;61.00;;;;;;10938494;32;20026;-70
2022/07/13 04:33:33;;;;;;;1.37;0.98;;;26.30;61.00;;;;;;10936834;32;20395;-70
2022/07/13 04:39:38;;;;;;;3.95;1.50;;;26.30;61.20;;;;;;10938025;32;20411;-70
2022/07/13 04:45:40;;;;;;;3.40;1.10;;;26.30;61.10;;;;;;10936414;32;20311;-71
2022/07/13 04:51:42;;;;;;;1.20;1.10;;;26.30;61.10;;;;;;10937249;32;20053;-72
2022/07/13 04:57:45;;;;;;;2.08;1.20;;;26.40;61.30;;;;;;10936662;32;20049;-70
2022/07/13 05:03:49;;;;;;;1.95;1.33;;;26.40;61.60;;;;;;10937433;32;20046;-70
2022/07/13 05:09:51;;;;;;;4.62;1.02;;;26.30;61.50;;;;;;10937713;32;20051;-70
2022/07/13 05:15:53;;;;;;;2.50;1.50;;;26.30;61.70;;;;;;10937540;32;20027;-71
2022/07/13 05:21:56;;;;;;;2.08;1.10;;;26.40;61.60;;;;;;10939643;32;20011;-71
2022/07/13 05:27:58;;;;;;;2.78;1.30;;;26.40;61.90;;;;;;10936078;32;20023;-71
2022/07/13 05:34:06;;;;;;;2.12;0.95;;;26.40;61.80;;;;;;10937584;32;20096;-70
2022/07/13 05:40:09;;;;;;;2.30;1.17;;;26.50;61.60;;;;;;10937934;32;20026;-71
2022/07/13 05:46:12;;;;;;;1.65;1.05;;;26.60;61.40;;;;;;10938380;32;20418;-71
2022/07/13 05:52:27;;;;;;;1.62;1.20;;;26.70;61.30;;;;;;10935944;32;20023;-71
2022/07/13 05:58:31;;;;;;;2.25;0.93;;;26.80;60.90;;;;;;10941184;32;20039;-70
2022/07/13 06:04:33;;;;;;;0.45;0.43;;;26.90;60.80;;;;;;10905449;32;20058;-70
2022/07/13 06:10:35;;;;;;;4.35;1.33;;;27.10;60.50;;;;;;10905535;32;20387;-71
2022/07/13 06:16:37;;;;;;;1.08;0.82;;;27.20;60.20;;;;;;10905063;32;20023;-70
2022/07/13 06:22:39;;;;;;;0.73;0.57;;;27.30;60.00;;;;;;10904666;32;20039;-70
2022/07/13 06:28:48;;;;;;;1.65;1.10;;;27.40;59.70;;;;;;10906212;32;20067;-70
2022/07/13 06:34:51;;;;;;;0.50;0.50;;;27.60;59.40;;;;;;10904796;32;20035;-69
2022/07/13 06:40:53;;;;;;;1.23;0.93;;;27.70;59.40;;;;;;10904649;32;20027;-70
2022/07/13 06:46:55;;;;;;;1.75;0.65;;;27.80;59.20;;;;;;10904165;32;20035;-70
2022/07/13 06:53:09;;;;;;;1.35;0.77;;;27.80;59.40;;;;;;10903413;32;20023;-70
2022/07/13 06:59:12;;;;;;;1.30;0.82;;;27.80;59.10;;;;;;10906135;32;20070;-70
2022/07/13 07:05:14;;;;;;;0.45;0.45;;;27.80;59.20;;;;;;10923830;32;20026;-69
2022/07/13 07:11:17;;;;;;;2.83;0.93;;;28.00;58.90;;;;;;10925007;32;20027;-69
2022/07/13 07:17:19;;;;;;;1.08;0.68;;;28.00;58.10;;;;;;10939659;32;20031;-70
2022/07/13 07:23:21;;;;;;;0.62;0.62;;;28.00;57.80;;;;;;10940562;32;20054;-69
2022/07/13 07:29:23;;;;;;;4.20;1.00;;;28.00;58.10;;;;;;10941637;32;20049;-67
2022/07/13 07:35:26;;;;;;;0.55;0.55;;;28.10;57.50;;;;;;10940559;32;20324;-70
2022/07/13 07:41:29;;;;;;;0.95;0.85;;;28.10;57.40;;;;;;10940250;32;20363;-70
2022/07/13 07:47:32;;;;;;;0.60;0.60;;;28.20;57.10;;;;;;10940612;32;20027;-70
2022/07/13 07:53:34;;;;;;;0.88;0.57;;;28.30;56.80;;;;;;10938321;32;20027;-69
2022/07/13 07:59:36;;;;;;;2.53;0.93;;;28.40;56.80;;;;;;10938586;32;20441;-69
2022/07/13 08:05:41;;;;;;;3.45;0.70;;;28.40;56.50;;;;;;10939217;32;20022;-73
2022/07/13 08:11:43;;;;;;;1.05;0.77;;;28.50;56.30;;;;;;10942233;32;20395;-73
2022/07/13 08:17:46;;;;;;;0.62;0.62;;;28.50;55.30;;;;;;10942889;32;20027;-73
2022/07/13 08:23:51;;;;;;;1.30;0.77;;;28.60;55.20;;;;;;10942751;32;20024;-74
2022/07/13 08:29:53;;;;;;;1.17;0.93;;;28.70;54.90;;;;;;10941563;32;20027;-73
2022/07/13 08:42:16;;;;;;;1.00;0.75;;;28.90;53.40;;;;;;10941953;32;20056;-72
2022/07/13 08:48:26;;;;;;;1.48;0.95;;;28.90;53.20;;;;;;10942053;32;20420;-74
2022/07/13 08:54:29;;;;;;;1.37;0.90;;;28.90;52.90;;;;;;10940893;32;20057;-72
2022/07/13 09:00:32;;;;;;;1.52;1.02;;;29.10;52.70;;;;;;10941804;32;20054;-72
2022/07/13 09:06:45;;;;;;;1.73;0.98;;;29.20;51.90;;;;;;10941671;32;20019;-73
2022/07/13 09:12:46;;;;;;;3.08;1.00;;;29.20;51.30;;;;;;10940641;32;20030;-72
2022/07/13 09:19:01;;;;;;;3.53;1.02;;;29.30;50.50;;;;;;10936204;32;20422;-74
2022/07/13 09:25:03;;;;;;;3.03;1.85;;;29.50;50.40;;;;;;10937701;32;20391;-71
2022/07/13 09:31:06;;;;;;;2.05;1.12;;;29.50;48.00;;;;;;10942411;32;20472;-72
2022/07/13 09:37:10;;;;;;;1.10;0.88;;;29.50;48.10;;;;;;10948506;32;20058;-72
2022/07/13 09:50:22;;;;;;;1.00;0.95;;;29.80;46.60;;;;;;10948213;32;20042;-72
2022/07/13 09:56:25;;;;;;;2.33;1.20;;;29.80;46.30;;;;;;10947870;32;20010;-72
2022/07/13 10:02:29;;;;;;;5.12;1.27;;;30.10;46.90;;;;;;10946764;32;20023;-72
2022/07/13 10:08:53;;;;;;;4.32;2.20;;;30.20;46.40;;;;;;10945598;32;20061;-72
2022/07/13 10:14:58;;;;;;;2.08;1.30;;;30.40;45.10;;;;;;10946341;32;20031;-71
2022/07/13 10:28:06;;;;;;;3.35;1.77;;;30.60;44.50;;;;;;10905175;32;20053;-72
2022/07/13 10:34:11;;;;;;;2.17;1.15;;;30.70;44.80;;;;;;10905267;32;20061;-73
2022/07/13 10:40:15;;;;;;;2.85;1.48;;;30.90;44.10;;;;;;10905061;32;20066;-72
2022/07/13 10:47:11;;;;;;;1.12;1.02;;;31.00;44.10;;;;;;10904219;32;20027;-73
2022/07/13 10:53:16;;;;;;;1.52;1.00;;;31.30;43.50;;;;;;10830164;32;20043;-73
2022/07/13 10:59:47;;;;;;;1.77;1.12;;;31.60;43.60;;;;;;10895021;32;20046;-72
2022/07/13 11:06:08;;;;;;;3.33;1.23;;;31.90;42.80;;;;;;10900987;32;20061;-72
2022/07/13 11:12:24;;;;;;;1.65;1.27;;;32.00;42.50;;;;;;10889069;32;20085;-71
2022/07/13 11:18:29;;;;;;;2.40;1.33;;;32.10;42.00;;;;;;10887571;32;20054;-69
2022/07/13 11:30:57;;;;;;;1.67;1.10;;;32.80;41.30;;;;;;10940977;32;20403;-69
2022/07/13 11:37:03;;;;;;;3.30;1.92;;;32.80;40.30;;;;;;10940789;32;20402;-68
2022/07/13 11:43:08;;;;;;;1.87;1.27;;;32.80;39.70;;;;;;10940661;32;20046;-69
2022/07/13 11:49:10;;;;;;;2.50;1.27;;;32.90;39.70;;;;;;10940489;32;20383;-69
2022/07/13 11:55:12;;;;;;;1.90;1.08;;;33.20;39.00;;;;;;10939296;32;20054;-68
2022/07/13 12:01:16;;;;;;;2.47;1.23;;;33.20;38.90;;;;;;10939172;32;20027;-71
2022/07/13 12:07:21;;;;;;;1.85;1.37;;;33.60;39.10;;;;;;10938937;32;20023;-71
2022/07/13 12:13:36;;;;;;;2.25;1.50;;;33.90;38.50;;;;;;10938816;32;20042;-71
2022/07/13 12:19:38;;;;;;;4.50;1.83;;;34.10;38.30;;;;;;10938509;32;20027;-71
2022/07/13 12:25:40;;;;;;;2.42;1.23;;;34.00;37.80;;;;;;10938826;32;20423;-68
2022/07/13 12:31:51;;;;;;;3.17;1.15;;;33.90;37.70;;;;;;10969075;27;20069;-70
2022/07/13 12:37:54;;;;;;;1.83;1.45;;;33.90;37.50;;;;;;10975767;32;20084;-70
2022/07/13 12:44:07;;;;;;;1.60;1.15;;;33.90;36.50;;;;;;10976179;32;20031;-71
2022/07/13 12:50:29;;;;;;;2.58;1.52;;;33.80;36.40;;;;;;10975995;32;20042;-71
2022/07/13 12:56:51;;;;;;;3.10;1.92;;;33.90;36.60;;;;;;10961927;32;20421;-70
2022/07/13 13:02:53;;;;;;;1.50;0.93;;;34.10;36.60;;;;;;10969981;32;20088;-71
2022/07/13 13:09:03;;;;;;;1.33;1.00;;;34.30;36.60;;;;;;10943696;32;20027;-72
2022/07/13 13:15:05;;;;;;;1.87;1.27;;;34.40;36.40;;;;;;10949372;32;20031;-72
2022/07/13 13:21:10;;;;;;;1.20;0.90;;;34.40;36.40;;;;;;10944962;32;20215;-72
2022/07/13 13:27:13;;;;;;;2.65;1.80;;;34.40;36.10;;;;;;10949069;32;20050;-72
2022/07/13 13:33:17;;;;;;;8.65;1.67;;;34.40;36.30;;;;;;10934295;32;20399;-72
2022/07/13 13:39:22;;;;;;;2.65;1.60;;;34.10;35.80;;;;;;10948499;32;20027;-72
2022/07/13 13:45:24;;;;;;;1.35;1.23;;;33.80;36.00;;;;;;10946369;32;20394;-72
2022/07/13 13:51:26;;;;;;;1.85;1.27;;;33.90;36.10;;;;;;10948158;32;20383;-72
2022/07/13 13:57:28;;;;;;;1.37;1.00;;;33.80;35.80;;;;;;10947943;32;20347;-73
2022/07/13 14:03:30;;;;;;;0.70;0.60;;;33.80;36.30;;;;;;10947787;32;20073;-73
2022/07/13 14:09:32;;;;;;;5.07;1.33;;;33.90;36.90;;;;;;10944990;32;20375;-73
2022/07/13 14:15:34;;;;;;;2.75;1.60;;;34.00;37.40;;;;;;10947206;32;20027;-74
2022/07/13 14:21:42;;;;;;;1.90;0.80;;;34.00;38.00;;;;;;10933655;32;20343;-72
2022/07/13 14:27:44;;;;;;;0.93;0.90;;;33.90;38.40;;;;;;10946860;32;20034;-72
2022/07/13 14:33:46;;;;;;;1.23;1.10;;;34.00;39.00;;;;;;10946696;32;20050;-73
2022/07/13 14:39:48;;;;;;;1.98;0.85;;;34.00;40.20;;;;;;10943046;32;20018;-74
2022/07/13 14:45:50;;;;;;;1.20;1.10;;;33.90;40.30;;;;;;10946406;32;20387;-71
2022/07/13 14:51:52;;;;;;;1.52;0.75;;;33.80;41.10;;;;;;10946065;32;20054;-73
2022/07/13 14:57:55;;;;;;;10.70;1.92;;;33.70;41.80;;;;;;10945383;32;20049;-74
2022/07/13 15:03:57;;;;;;;0.95;0.47;;;33.70;41.70;;;;;;10959153;32;20031;-73
2022/07/13 15:10:01;;;;;;;0.52;0.47;;;33.70;41.40;;;;;;10945341;32;20027;-74
2022/07/13 15:16:05;;;;;;;1.37;0.80;;;33.80;41.30;;;;;;10931581;32;20457;-72
2022/07/13 15:22:07;;;;;;;0.80;0.57;;;33.80;41.10;;;;;;10940836;32;20387;-74
2022/07/13 15:28:09;;;;;;;0.82;0.60;;;33.90;40.70;;;;;;10943664;32;20030;-75
2022/07/13 15:34:11;;;;;;;1.00;0.60;;;33.90;40.30;;;;;;10944521;32;20323;-74
2022/07/13 15:40:13;;;;;;;0.75;0.60;;;34.00;40.40;;;;;;10930866;32;20055;-73
2022/07/13 15:46:34;;;;;;;1.48;0.90;;;34.10;40.10;;;;;;10940902;32;20049;-73
2022/07/13 15:52:55;;;;;;;1.58;0.98;;;34.10;40.20;;;;;;10943614;32;20109;-74
2022/07/13 15:59:00;;;;;;;1.23;0.75;;;34.20;40.10;;;;;;10930327;32;20023;-73
2022/07/13 16:05:03;;;;;;;1.45;0.73;;;34.10;40.30;;;;;;10942437;32;20479;-73
2022/07/13 16:11:22;;;;;;;2.10;0.65;;;34.00;41.00;;;;;;10943172;32;20422;-73
2022/07/13 16:17:25;;;;;;;2.22;0.73;;;34.00;41.00;;;;;;10942733;32;20026;-73
2022/07/13 16:23:28;;;;;;;2.35;0.98;;;33.90;41.30;;;;;;10942943;32;20019;-73
2022/07/13 16:29:31;;;;;;;3.60;1.15;;;33.90;41.40;;;;;;10952695;32;20027;-72
2022/07/13 16:35:34;;;;;;;1.40;0.70;;;33.90;41.50;;;;;;10977321;32;20354;-72
2022/07/13 16:41:36;;;;;;;1.90;0.95;;;33.90;41.60;;;;;;10962622;32;20056;-72
2022/07/13 16:47:39;;;;;;;3.45;0.80;;;33.90;41.50;;;;;;10975595;32;20049;-72
2022/07/13 16:53:42;;;;;;;2.67;0.73;;;33.90;41.40;;;;;;10975593;32;20053;-72
2022/07/13 16:59:45;;;;;;;0.93;0.60;;;33.90;41.80;;;;;;10956232;32;20391;-72
2022/07/13 17:05:48;;;;;;;1.42;0.80;;;33.80;42.40;;;;;;10938711;32;20312;-71
2022/07/13 17:11:50;;;;;;;1.42;0.85;;;33.80;41.90;;;;;;10937179;32;20039;-72
2022/07/13 17:17:52;;;;;;;6.45;0.88;;;33.80;41.70;;;;;;10923541;32;20031;-72
2022/07/13 17:24:14;;;;;;;4.78;0.82;;;33.90;41.60;;;;;;10925511;32;20030;-72
2022/07/13 17:30:17;;;;;;;3.60;0.95;;;33.90;41.60;;;;;;10937193;32;20049;-72
2022/07/13 17:36:27;;;;;;;0.50;0.30;;;33.90;41.60;;;;;;10936744;32;20099;-71
2022/07/13 17:42:29;;;;;;;1.27;0.82;;;33.90;41.40;;;;;;10938022;32;20490;-72
2022/07/13 17:48:32;;;;;;;6.40;1.00;;;33.90;41.40;;;;;;10923499;32;20026;-72
2022/07/13 17:54:35;;;;;;;0.30;0.30;;;34.20;40.90;;;;;;10941437;32;20030;-72
2022/07/13 18:00:37;;;;;;;1.35;0.47;;;34.80;40.10;;;;;;10930022;32;20358;-72
2022/07/13 18:06:39;;;;;;;2.45;0.30;;;35.60;39.10;;;;;;10943672;32;20026;-72
2022/07/13 18:12:41;;;;;;;6.80;0.68;;;36.30;38.70;;;;;;10929773;32;20038;-72
2022/07/13 18:18:44;;;;;;;1.15;0.43;;;35.40;39.90;;;;;;10929659;32;20027;-72
2022/07/13 18:24:46;;;;;;;2.55;0.50;;;34.50;41.20;;;;;;10942669;32;20049;-74
2022/07/13 18:30:49;;;;;;;8.60;0.73;;;33.90;42.00;;;;;;10946706;32;20396;-74
2022/07/13 18:36:51;;;;;;;0.55;0.40;;;33.50;42.40;;;;;;10933002;32;20045;-74
2022/07/13 18:42:53;;;;;;;0.95;0.32;;;33.30;42.70;;;;;;10946548;32;20073;-74
2022/07/13 18:48:55;;;;;;;2.55;0.55;;;33.00;42.80;;;;;;10942046;32;20031;-73
2022/07/13 18:54:58;;;;;;;1.25;0.50;;;32.80;43.10;;;;;;10945794;32;20060;-73
2022/07/13 19:01:01;;;;;;;0.50;0.45;;;32.60;43.50;;;;;;10933144;32;20022;-74
2022/07/13 19:07:04;;;;;;;0.20;0.20;;;32.40;43.70;;;;;;10978237;32;20057;-74
2022/07/13 19:13:06;;;;;;;0.68;0.40;;;32.20;44.00;;;;;;10982606;32;20045;-74
2022/07/13 19:19:08;;;;;;;1.02;0.62;;;32.10;44.20;;;;;;10955636;32;20022;-73
2022/07/13 19:31:35;;;;;;;0.30;0.30;;;31.80;44.50;;;;;;10945173;32;20057;-73
2022/07/13 19:37:37;;;;;;;1.02;0.70;;;31.70;44.90;;;;;;10961628;32;20058;-74
2022/07/13 19:43:39;;;;;;;2.53;0.60;;;31.60;45.20;;;;;;10944586;32;20049;-74
2022/07/13 19:49:43;;;;;;;0.35;0.30;;;31.40;45.40;;;;;;10944145;32;20065;-74
2022/07/13 19:55:46;;;;;;;0.57;0.40;;;31.40;45.70;;;;;;10962932;32;20026;-73
2022/07/13 20:01:49;;;;;;;0.73;0.50;;;31.30;46.00;;;;;;10953349;32;20027;-74
2022/07/13 20:07:52;;;;;;;0.82;0.60;;;31.20;46.20;;;;;;10948385;32;20054;-74
2022/07/13 20:13:54;;;;;;;0.85;0.47;;;31.20;46.40;;;;;;10944100;32;20357;-73
2022/07/13 20:20:25;;;;;;;0.77;0.30;;;31.00;46.60;;;;;;10958338;32;20035;-73
2022/07/13 20:26:28;;;;;;;2.95;0.60;;;30.90;46.90;;;;;;10956858;32;20053;-73
2022/07/13 20:32:30;;;;;;;0.82;0.60;;;30.80;47.20;;;;;;10970132;27;20335;-73
2022/07/13 20:38:32;;;;;;;1.35;0.60;;;30.80;47.40;;;;;;10969245;32;20411;-73
2022/07/13 20:44:34;;;;;;;0.70;0.50;;;30.60;47.80;;;;;;10942264;32;20084;-73
2022/07/13 20:50:37;;;;;;;0.40;0.40;;;30.50;48.00;;;;;;10945991;32;20023;-73
2022/07/13 20:56:39;;;;;;;3.22;0.70;;;30.40;48.20;;;;;;10979413;32;20031;-73
2022/07/13 21:02:42;;;;;;;2.12;0.70;;;30.40;48.40;;;;;;10979532;32;20010;-73
2022/07/13 21:16:23;;;;;;;0.37;0.37;;;30.20;48.80;;;;;;10979332;32;20429;-73
2022/07/13 21:22:25;;;;;;;0.70;0.50;;;30.10;49.30;;;;;;10978286;32;20039;-73
2022/07/13 21:28:28;;;;;;;0.28;0.28;;;30.00;49.60;;;;;;10982984;32;20026;-73
2022/07/13 21:34:30;;;;;;;0.68;0.60;;;29.90;49.80;;;;;;10986355;32;20030;-74
2022/07/13 21:40:32;;;;;;;0.90;0.40;;;29.90;50.00;;;;;;10985359;32;20049;-73
2022/07/13 21:46:34;;;;;;;1.45;0.62;;;29.80;50.30;;;;;;10972760;32;20053;-73
2022/07/13 21:52:37;;;;;;;0.95;0.50;;;29.70;50.60;;;;;;10985969;32;20330;-73
2022/07/13 21:58:39;;;;;;;0.80;0.50;;;29.60;50.70;;;;;;10985779;32;20385;-73
2022/07/13 22:04:44;;;;;;;0.73;0.47;;;29.70;51.20;;;;;;10972060;32;20035;-73
2022/07/13 22:11:24;;;;;;;1.62;0.62;;;29.50;52.40;;;;;;10985372;32;20351;-73
2022/07/13 22:18:03;;;;;;;1.55;0.70;;;29.40;53.10;;;;;;10985049;32;20030;-73
2022/07/13 22:24:43;;;;;;;1.62;0.75;;;29.30;52.80;;;;;;10984901;32;20018;-73
2022/07/13 22:31:23;;;;;;;2.25;0.98;;;29.30;53.10;;;;;;10984487;32;20046;-73
2022/07/13 22:38:02;;;;;;;4.80;1.00;;;29.20;53.30;;;;;;10984321;32;20437;-73
2022/07/13 22:44:46;;;;;;;1.10;0.80;;;29.00;53.50;;;;;;10984157;32;20038;-73
2022/07/13 22:51:26;;;;;;;0.73;0.60;;;28.80;53.70;;;;;;10983879;32;20034;-73
2022/07/13 22:58:06;;;;;;;0.75;0.57;;;28.60;54.00;;;;;;10983633;32;20057;-73
2022/07/13 23:04:45;;;;;;;1.30;0.90;;;28.70;54.00;;;;;;10983409;32;20042;-73
2022/07/13 23:11:25;;;;;;;1.48;0.70;;;28.70;54.00;;;;;;10983233;32;20022;-73
2022/07/13 23:18:04;;;;;;;6.72;0.90;;;28.50;54.20;;;;;;10982820;32;20030;-73
2022/07/13 23:24:43;;;;;;;1.25;0.62;;;28.50;54.40;;;;;;10982596;32;20034;-73
2022/07/13 23:31:07;;;;;;;3.28;0.85;;;28.40;55.00;;;;;;10982409;32;20037;-71
2022/07/13 23:37:10;;;;;;;1.37;0.60;;;28.50;55.00;;;;;;10978338;32;20030;-71
2022/07/13 23:43:13;;;;;;;1.37;0.70;;;28.50;54.80;;;;;;10977493;32;20045;-71
2022/07/13 23:49:15;;;;;;;2.17;0.93;;;28.30;55.00;;;;;;10978121;32;20030;-71
2022/07/13 23:55:17;;;;;;;0.75;0.60;;;28.30;55.00;;;;;;10977098;32;20053;-71
